sensor_id;sensor_type;location;lat;lon;timestamp;P1;durP1;ratioP1;P2;durP2;ratioP2
17424;SDS011;8830;50.978;5.058;2023-05-29T00:01:36;5.40;;;4.53;;
17424;SDS011;8830;50.978;5.058;2023-05-29T00:04:04;8.03;;;5.53;;
17424;SDS011;8830;50.978;5.058;2023-05-29T00:06:32;5.90;;;4.90;;
17424;SDS011;8830;50.978;5.058;2023-05-29T00:09:01;5.30;;;4.73;;
17424;SDS011;8830;50.978;5.058;2023-05-29T00:11:29;6.00;;;4.63;;
17424;SDS011;8830;50.978;5.058;2023-05-29T00:13:56;7.13;;;4.73;;
17424;SDS011;8830;50.978;5.058;2023-05-29T00:16:24;5.83;;;4.83;;
17424;SDS011;8830;50.978;5.058;2023-05-29T00:18:54;7.43;;;4.93;;
17424;SDS011;8830;50.978;5.058;2023-05-29T00:21:21;8.13;;;4.87;;
17424;SDS011;8830;50.978;5.058;2023-05-29T00:23:49;5.77;;;4.77;;
17424;SDS011;8830;50.978;5.058;2023-05-29T00:26:23;6.47;;;5.40;;
17424;SDS011;8830;50.978;5.058;2023-05-29T00:28:56;7.07;;;5.03;;
17424;SDS011;8830;50.978;5.058;2023-05-29T00:31:24;6.17;;;4.80;;
17424;SDS011;8830;50.978;5.058;2023-05-29T00:33:54;5.43;;;4.90;;
17424;SDS011;8830;50.978;5.058;2023-05-29T00:36:21;6.13;;;5.03;;
17424;SDS011;8830;50.978;5.058;2023-05-29T00:38:50;7.97;;;5.60;;
17424;SDS011;8830;50.978;5.058;2023-05-29T00:41:18;8.43;;;5.50;;
17424;SDS011;8830;50.978;5.058;2023-05-29T00:43:45;9.27;;;6.27;;
17424;SDS011;8830;50.978;5.058;2023-05-29T00:46:13;7.40;;;5.70;;
17424;SDS011;8830;50.978;5.058;2023-05-29T00:48:43;7.77;;;4.87;;
17424;SDS011;8830;50.978;5.058;2023-05-29T00:51:12;6.37;;;5.23;;
17424;SDS011;8830;50.978;5.058;2023-05-29T00:53:41;6.63;;;5.50;;
17424;SDS011;8830;50.978;5.058;2023-05-29T00:56:10;6.10;;;5.50;;
17424;SDS011;8830;50.978;5.058;2023-05-29T00:58:39;9.53;;;5.67;;
17424;SDS011;8830;50.978;5.058;2023-05-29T01:01:07;9.47;;;5.90;;
17424;SDS011;8830;50.978;5.058;2023-05-29T01:03:35;7.27;;;5.90;;
17424;SDS011;8830;50.978;5.058;2023-05-29T01:06:03;7.30;;;5.57;;
17424;SDS011;8830;50.978;5.058;2023-05-29T01:08:31;6.43;;;5.50;;
17424;SDS011;8830;50.978;5.058;2023-05-29T01:11:03;8.33;;;5.80;;
17424;SDS011;8830;50.978;5.058;2023-05-29T01:13:36;9.43;;;5.97;;
17424;SDS011;8830;50.978;5.058;2023-05-29T01:16:06;7.60;;;6.37;;
17424;SDS011;8830;50.978;5.058;2023-05-29T01:18:39;9.00;;;6.87;;
17424;SDS011;8830;50.978;5.058;2023-05-29T01:21:14;9.73;;;6.93;;
17424;SDS011;8830;50.978;5.058;2023-05-29T01:24:09;10.17;;;7.20;;
17424;SDS011;8830;50.978;5.058;2023-05-29T01:26:48;9.57;;;7.37;;
17424;SDS011;8830;50.978;5.058;2023-05-29T01:29:18;7.87;;;6.70;;
17424;SDS011;8830;50.978;5.058;2023-05-29T01:31:48;7.90;;;6.77;;
17424;SDS011;8830;50.978;5.058;2023-05-29T01:34:16;11.07;;;7.47;;
17424;SDS011;8830;50.978;5.058;2023-05-29T01:36:56;10.33;;;7.13;;
17424;SDS011;8830;50.978;5.058;2023-05-29T01:42:33;13.30;;;7.00;;
17424;SDS011;8830;50.978;5.058;2023-05-29T02:02:03;14.13;;;8.40;;
17424;SDS011;8830;50.978;5.058;2023-05-29T02:28:22;18.00;;;9.67;;
17424;SDS011;8830;50.978;5.058;2023-05-29T02:51:48;12.63;;;5.70;;
17424;SDS011;8830;50.978;5.058;2023-05-29T04:56:03;8.23;;;2.77;;
17424;SDS011;8830;50.978;5.058;2023-05-29T04:58:32;9.93;;;3.40;;
17424;SDS011;8830;50.978;5.058;2023-05-29T05:00:59;15.87;;;3.13;;
17424;SDS011;8830;50.978;5.058;2023-05-29T05:03:30;10.13;;;3.43;;
17424;SDS011;8830;50.978;5.058;2023-05-29T05:05:59;14.43;;;3.87;;
17424;SDS011;8830;50.978;5.058;2023-05-29T05:08:27;8.67;;;2.80;;
17424;SDS011;8830;50.978;5.058;2023-05-29T05:10:55;6.53;;;2.40;;
17424;SDS011;8830;50.978;5.058;2023-05-29T05:13:26;7.60;;;2.87;;
17424;SDS011;8830;50.978;5.058;2023-05-29T05:15:56;11.47;;;2.53;;
17424;SDS011;8830;50.978;5.058;2023-05-29T05:18:23;7.57;;;3.33;;
17424;SDS011;8830;50.978;5.058;2023-05-29T05:20:50;8.03;;;3.10;;
17424;SDS011;8830;50.978;5.058;2023-05-29T05:23:17;10.80;;;3.40;;
17424;SDS011;8830;50.978;5.058;2023-05-29T05:25:47;9.10;;;2.93;;
17424;SDS011;8830;50.978;5.058;2023-05-29T05:28:14;11.57;;;3.10;;
17424;SDS011;8830;50.978;5.058;2023-05-29T05:30:43;11.87;;;2.80;;
17424;SDS011;8830;50.978;5.058;2023-05-29T05:33:10;6.67;;;2.63;;
17424;SDS011;8830;50.978;5.058;2023-05-29T05:35:38;8.90;;;3.20;;
17424;SDS011;8830;50.978;5.058;2023-05-29T05:38:05;9.90;;;3.47;;
17424;SDS011;8830;50.978;5.058;2023-05-29T05:40:33;8.77;;;3.30;;
17424;SDS011;8830;50.978;5.058;2023-05-29T05:43:01;8.03;;;3.00;;
17424;SDS011;8830;50.978;5.058;2023-05-29T05:45:28;14.67;;;3.33;;
17424;SDS011;8830;50.978;5.058;2023-05-29T05:47:57;8.67;;;3.60;;
17424;SDS011;8830;50.978;5.058;2023-05-29T05:50:26;10.60;;;3.60;;
17424;SDS011;8830;50.978;5.058;2023-05-29T05:52:54;9.13;;;3.27;;
17424;SDS011;8830;50.978;5.058;2023-05-29T05:55:22;9.07;;;2.97;;
17424;SDS011;8830;50.978;5.058;2023-05-29T05:57:51;10.07;;;3.20;;
17424;SDS011;8830;50.978;5.058;2023-05-29T06:00:19;8.97;;;3.10;;
17424;SDS011;8830;50.978;5.058;2023-05-29T06:02:46;7.20;;;3.00;;
17424;SDS011;8830;50.978;5.058;2023-05-29T06:05:15;6.40;;;2.93;;
17424;SDS011;8830;50.978;5.058;2023-05-29T06:07:43;8.20;;;2.93;;
17424;SDS011;8830;50.978;5.058;2023-05-29T06:10:10;8.63;;;3.30;;
17424;SDS011;8830;50.978;5.058;2023-05-29T06:12:44;6.97;;;3.33;;
17424;SDS011;8830;50.978;5.058;2023-05-29T06:15:11;5.63;;;2.53;;
17424;SDS011;8830;50.978;5.058;2023-05-29T06:17:39;13.03;;;2.93;;
17424;SDS011;8830;50.978;5.058;2023-05-29T06:20:08;9.23;;;3.70;;
17424;SDS011;8830;50.978;5.058;2023-05-29T06:22:38;9.00;;;3.33;;
17424;SDS011;8830;50.978;5.058;2023-05-29T06:25:08;8.40;;;3.10;;
17424;SDS011;8830;50.978;5.058;2023-05-29T06:27:35;7.30;;;3.13;;
17424;SDS011;8830;50.978;5.058;2023-05-29T06:30:02;9.77;;;3.07;;
17424;SDS011;8830;50.978;5.058;2023-05-29T06:32:30;10.90;;;3.67;;
17424;SDS011;8830;50.978;5.058;2023-05-29T06:34:57;7.47;;;2.70;;
17424;SDS011;8830;50.978;5.058;2023-05-29T06:37:24;9.10;;;3.57;;
17424;SDS011;8830;50.978;5.058;2023-05-29T06:39:53;6.20;;;2.53;;
17424;SDS011;8830;50.978;5.058;2023-05-29T06:42:21;7.77;;;3.27;;
17424;SDS011;8830;50.978;5.058;2023-05-29T06:44:54;8.57;;;2.73;;
17424;SDS011;8830;50.978;5.058;2023-05-29T06:47:21;10.60;;;3.50;;
17424;SDS011;8830;50.978;5.058;2023-05-29T06:49:50;7.57;;;2.93;;
17424;SDS011;8830;50.978;5.058;2023-05-29T06:52:18;12.03;;;3.43;;
17424;SDS011;8830;50.978;5.058;2023-05-29T06:54:46;8.67;;;2.70;;
17424;SDS011;8830;50.978;5.058;2023-05-29T06:57:16;5.50;;;2.93;;
17424;SDS011;8830;50.978;5.058;2023-05-29T06:59:49;9.33;;;2.90;;
17424;SDS011;8830;50.978;5.058;2023-05-29T07:02:16;8.23;;;3.10;;
17424;SDS011;8830;50.978;5.058;2023-05-29T07:04:44;7.37;;;3.07;;
17424;SDS011;8830;50.978;5.058;2023-05-29T07:07:12;7.82;;;2.92;;
17424;SDS011;8830;50.978;5.058;2023-05-29T07:09:39;10.68;;;2.90;;
17424;SDS011;8830;50.978;5.058;2023-05-29T07:12:10;9.95;;;3.28;;
17424;SDS011;8830;50.978;5.058;2023-05-29T07:14:40;8.57;;;3.15;;
17424;SDS011;8830;50.978;5.058;2023-05-29T07:17:07;6.05;;;3.05;;
17424;SDS011;8830;50.978;5.058;2023-05-29T07:19:35;7.40;;;3.08;;
17424;SDS011;8830;50.978;5.058;2023-05-29T07:22:05;6.93;;;2.90;;
17424;SDS011;8830;50.978;5.058;2023-05-29T07:24:32;8.50;;;2.85;;
17424;SDS011;8830;50.978;5.058;2023-05-29T07:27:00;5.38;;;2.90;;
17424;SDS011;8830;50.978;5.058;2023-05-29T07:29:28;9.95;;;3.10;;
17424;SDS011;8830;50.978;5.058;2023-05-29T07:31:58;7.55;;;3.08;;
17424;SDS011;8830;50.978;5.058;2023-05-29T07:34:25;5.40;;;2.78;;
17424;SDS011;8830;50.978;5.058;2023-05-29T07:36:59;5.50;;;2.70;;
17424;SDS011;8830;50.978;5.058;2023-05-29T07:39:28;5.95;;;3.00;;
17424;SDS011;8830;50.978;5.058;2023-05-29T07:41:55;7.40;;;2.80;;
17424;SDS011;8830;50.978;5.058;2023-05-29T07:44:23;6.00;;;2.78;;
17424;SDS011;8830;50.978;5.058;2023-05-29T07:46:51;10.30;;;2.90;;
17424;SDS011;8830;50.978;5.058;2023-05-29T07:49:25;9.07;;;3.13;;
17424;SDS011;8830;50.978;5.058;2023-05-29T07:51:53;5.38;;;2.95;;
17424;SDS011;8830;50.978;5.058;2023-05-29T07:54:21;7.50;;;2.88;;
17424;SDS011;8830;50.978;5.058;2023-05-29T07:56:49;8.20;;;3.10;;
17424;SDS011;8830;50.978;5.058;2023-05-29T07:59:16;8.32;;;2.95;;
17424;SDS011;8830;50.978;5.058;2023-05-29T08:01:44;8.05;;;2.80;;
17424;SDS011;8830;50.978;5.058;2023-05-29T08:04:12;6.47;;;2.53;;
17424;SDS011;8830;50.978;5.058;2023-05-29T08:06:42;11.27;;;2.80;;
17424;SDS011;8830;50.978;5.058;2023-05-29T08:09:10;10.15;;;3.13;;
17424;SDS011;8830;50.978;5.058;2023-05-29T08:11:40;6.32;;;2.75;;
17424;SDS011;8830;50.978;5.058;2023-05-29T08:14:07;11.65;;;3.42;;
17424;SDS011;8830;50.978;5.058;2023-05-29T08:16:35;9.02;;;2.80;;
17424;SDS011;8830;50.978;5.058;2023-05-29T08:19:03;6.95;;;3.42;;
17424;SDS011;8830;50.978;5.058;2023-05-29T08:21:31;6.18;;;2.95;;
17424;SDS011;8830;50.978;5.058;2023-05-29T08:24:01;6.70;;;3.17;;
17424;SDS011;8830;50.978;5.058;2023-05-29T08:26:30;6.15;;;2.70;;
17424;SDS011;8830;50.978;5.058;2023-05-29T08:28:57;6.88;;;3.08;;
17424;SDS011;8830;50.978;5.058;2023-05-29T08:31:25;7.28;;;3.22;;
17424;SDS011;8830;50.978;5.058;2023-05-29T08:33:54;9.75;;;3.38;;
17424;SDS011;8830;50.978;5.058;2023-05-29T08:36:23;8.02;;;2.95;;
17424;SDS011;8830;50.978;5.058;2023-05-29T08:38:51;14.68;;;3.38;;
17424;SDS011;8830;50.978;5.058;2023-05-29T08:41:21;7.38;;;3.10;;
17424;SDS011;8830;50.978;5.058;2023-05-29T08:43:56;8.90;;;3.15;;
17424;SDS011;8830;50.978;5.058;2023-05-29T08:46:29;6.70;;;3.47;;
17424;SDS011;8830;50.978;5.058;2023-05-29T08:48:58;7.63;;;3.00;;
17424;SDS011;8830;50.978;5.058;2023-05-29T08:51:30;6.75;;;2.63;;
17424;SDS011;8830;50.978;5.058;2023-05-29T08:53:59;15.18;;;3.67;;
17424;SDS011;8830;50.978;5.058;2023-05-29T08:56:29;8.38;;;3.55;;
17424;SDS011;8830;50.978;5.058;2023-05-29T08:58:56;7.25;;;3.08;;
17424;SDS011;8830;50.978;5.058;2023-05-29T09:01:25;10.02;;;3.17;;
17424;SDS011;8830;50.978;5.058;2023-05-29T09:03:53;7.65;;;3.33;;
17424;SDS011;8830;50.978;5.058;2023-05-29T09:06:21;9.65;;;3.35;;
17424;SDS011;8830;50.978;5.058;2023-05-29T09:08:51;9.88;;;3.10;;
17424;SDS011;8830;50.978;5.058;2023-05-29T09:11:19;6.90;;;3.33;;
17424;SDS011;8830;50.978;5.058;2023-05-29T09:13:49;8.45;;;3.28;;
17424;SDS011;8830;50.978;5.058;2023-05-29T09:16:18;9.98;;;3.30;;
17424;SDS011;8830;50.978;5.058;2023-05-29T09:18:47;9.57;;;3.47;;
17424;SDS011;8830;50.978;5.058;2023-05-29T09:21:25;11.48;;;3.67;;
17424;SDS011;8830;50.978;5.058;2023-05-29T09:23:54;12.27;;;3.83;;
17424;SDS011;8830;50.978;5.058;2023-05-29T09:26:29;11.15;;;3.05;;
17424;SDS011;8830;50.978;5.058;2023-05-29T09:28:57;10.48;;;3.42;;
17424;SDS011;8830;50.978;5.058;2023-05-29T09:31:26;9.63;;;3.47;;
17424;SDS011;8830;50.978;5.058;2023-05-29T09:33:53;10.48;;;3.17;;
17424;SDS011;8830;50.978;5.058;2023-05-29T09:36:21;11.27;;;3.43;;
17424;SDS011;8830;50.978;5.058;2023-05-29T09:38:50;5.67;;;2.93;;
17424;SDS011;8830;50.978;5.058;2023-05-29T09:41:20;7.53;;;3.40;;
17424;SDS011;8830;50.978;5.058;2023-05-29T09:43:49;11.47;;;2.90;;
17424;SDS011;8830;50.978;5.058;2023-05-29T09:46:17;7.37;;;3.20;;
17424;SDS011;8830;50.978;5.058;2023-05-29T09:48:45;11.80;;;3.40;;
17424;SDS011;8830;50.978;5.058;2023-05-29T09:51:20;11.43;;;2.87;;
17424;SDS011;8830;50.978;5.058;2023-05-29T09:53:50;9.87;;;3.57;;
17424;SDS011;8830;50.978;5.058;2023-05-29T09:56:18;11.17;;;2.77;;
17424;SDS011;8830;50.978;5.058;2023-05-29T09:58:50;7.07;;;2.53;;
17424;SDS011;8830;50.978;5.058;2023-05-29T10:01:21;8.53;;;2.80;;
17424;SDS011;8830;50.978;5.058;2023-05-29T10:03:55;8.07;;;2.93;;
17424;SDS011;8830;50.978;5.058;2023-05-29T10:06:22;10.27;;;3.00;;
17424;SDS011;8830;50.978;5.058;2023-05-29T10:08:50;7.43;;;2.57;;
17424;SDS011;8830;50.978;5.058;2023-05-29T10:11:21;5.90;;;2.80;;
17424;SDS011;8830;50.978;5.058;2023-05-29T10:13:52;9.63;;;3.17;;
17424;SDS011;8830;50.978;5.058;2023-05-29T10:16:22;7.90;;;2.90;;
17424;SDS011;8830;50.978;5.058;2023-05-29T10:18:53;7.10;;;3.63;;
17424;SDS011;8830;50.978;5.058;2023-05-29T10:21:22;8.77;;;3.03;;
17424;SDS011;8830;50.978;5.058;2023-05-29T10:23:52;8.83;;;3.20;;
17424;SDS011;8830;50.978;5.058;2023-05-29T10:26:22;9.53;;;3.30;;
17424;SDS011;8830;50.978;5.058;2023-05-29T10:28:54;6.33;;;2.80;;
17424;SDS011;8830;50.978;5.058;2023-05-29T10:31:33;8.10;;;2.60;;
17424;SDS011;8830;50.978;5.058;2023-05-29T10:34:13;10.57;;;3.40;;
17424;SDS011;8830;50.978;5.058;2023-05-29T10:36:52;11.03;;;3.27;;
17424;SDS011;8830;50.978;5.058;2023-05-29T10:39:27;9.43;;;2.93;;
17424;SDS011;8830;50.978;5.058;2023-05-29T10:41:55;6.77;;;2.90;;
17424;SDS011;8830;50.978;5.058;2023-05-29T10:44:41;7.30;;;2.77;;
17424;SDS011;8830;50.978;5.058;2023-05-29T10:47:09;9.60;;;3.00;;
17424;SDS011;8830;50.978;5.058;2023-05-29T10:49:38;6.83;;;2.77;;
17424;SDS011;8830;50.978;5.058;2023-05-29T10:52:06;5.73;;;2.50;;
17424;SDS011;8830;50.978;5.058;2023-05-29T10:54:40;6.30;;;3.27;;
17424;SDS011;8830;50.978;5.058;2023-05-29T10:57:17;7.83;;;2.60;;
17424;SDS011;8830;50.978;5.058;2023-05-29T10:59:45;7.97;;;3.00;;
17424;SDS011;8830;50.978;5.058;2023-05-29T11:02:18;8.00;;;3.20;;
17424;SDS011;8830;50.978;5.058;2023-05-29T11:04:59;7.70;;;2.90;;
17424;SDS011;8830;50.978;5.058;2023-05-29T11:07:51;12.50;;;2.50;;
17424;SDS011;8830;50.978;5.058;2023-05-29T11:13:09;7.43;;;2.70;;
17424;SDS011;8830;50.978;5.058;2023-05-29T11:15:36;9.57;;;3.40;;
17424;SDS011;8830;50.978;5.058;2023-05-29T11:18:08;7.90;;;2.83;;
17424;SDS011;8830;50.978;5.058;2023-05-29T11:20:42;7.47;;;3.10;;
17424;SDS011;8830;50.978;5.058;2023-05-29T11:23:16;7.43;;;2.80;;
17424;SDS011;8830;50.978;5.058;2023-05-29T11:25:45;6.90;;;2.57;;
17424;SDS011;8830;50.978;5.058;2023-05-29T11:28:13;12.27;;;3.40;;
17424;SDS011;8830;50.978;5.058;2023-05-29T11:30:46;16.20;;;3.13;;
17424;SDS011;8830;50.978;5.058;2023-05-29T11:33:26;7.77;;;2.50;;
17424;SDS011;8830;50.978;5.058;2023-05-29T11:35:57;8.50;;;2.57;;
17424;SDS011;8830;50.978;5.058;2023-05-29T11:38:28;11.67;;;3.53;;
17424;SDS011;8830;50.978;5.058;2023-05-29T11:40:56;8.43;;;2.97;;
17424;SDS011;8830;50.978;5.058;2023-05-29T11:43:24;10.53;;;2.60;;
17424;SDS011;8830;50.978;5.058;2023-05-29T11:45:55;9.57;;;2.67;;
17424;SDS011;8830;50.978;5.058;2023-05-29T11:48:22;8.77;;;2.67;;
17424;SDS011;8830;50.978;5.058;2023-05-29T11:50:51;5.90;;;2.77;;
17424;SDS011;8830;50.978;5.058;2023-05-29T11:53:19;5.27;;;2.43;;
17424;SDS011;8830;50.978;5.058;2023-05-29T11:55:47;7.73;;;2.43;;
17424;SDS011;8830;50.978;5.058;2023-05-29T11:58:15;5.87;;;2.80;;
17424;SDS011;8830;50.978;5.058;2023-05-29T12:00:43;8.70;;;2.67;;
17424;SDS011;8830;50.978;5.058;2023-05-29T12:03:12;8.80;;;3.00;;
17424;SDS011;8830;50.978;5.058;2023-05-29T12:05:46;6.90;;;3.23;;
17424;SDS011;8830;50.978;5.058;2023-05-29T12:08:20;7.90;;;2.80;;
17424;SDS011;8830;50.978;5.058;2023-05-29T12:10:48;5.70;;;2.60;;
17424;SDS011;8830;50.978;5.058;2023-05-29T12:13:15;8.47;;;2.90;;
17424;SDS011;8830;50.978;5.058;2023-05-29T12:15:45;5.97;;;2.50;;
17424;SDS011;8830;50.978;5.058;2023-05-29T12:18:14;7.40;;;2.83;;
17424;SDS011;8830;50.978;5.058;2023-05-29T12:20:43;5.07;;;2.40;;
17424;SDS011;8830;50.978;5.058;2023-05-29T12:23:11;7.40;;;2.67;;
17424;SDS011;8830;50.978;5.058;2023-05-29T12:25:40;5.23;;;2.60;;
17424;SDS011;8830;50.978;5.058;2023-05-29T12:28:08;6.80;;;2.27;;
17424;SDS011;8830;50.978;5.058;2023-05-29T12:30:36;8.80;;;3.17;;
17424;SDS011;8830;50.978;5.058;2023-05-29T12:33:04;11.30;;;3.10;;
17424;SDS011;8830;50.978;5.058;2023-05-29T12:35:32;7.73;;;2.50;;
17424;SDS011;8830;50.978;5.058;2023-05-29T12:38:00;3.80;;;2.40;;
17424;SDS011;8830;50.978;5.058;2023-05-29T12:40:30;7.77;;;2.90;;
17424;SDS011;8830;50.978;5.058;2023-05-29T12:43:01;6.57;;;2.40;;
17424;SDS011;8830;50.978;5.058;2023-05-29T12:45:30;8.60;;;2.40;;
17424;SDS011;8830;50.978;5.058;2023-05-29T12:47:58;8.60;;;2.50;;
17424;SDS011;8830;50.978;5.058;2023-05-29T12:50:34;13.30;;;3.40;;
17424;SDS011;8830;50.978;5.058;2023-05-29T12:53:02;6.10;;;2.63;;
17424;SDS011;8830;50.978;5.058;2023-05-29T12:55:32;10.60;;;3.13;;
17424;SDS011;8830;50.978;5.058;2023-05-29T12:58:03;4.87;;;2.90;;
17424;SDS011;8830;50.978;5.058;2023-05-29T13:00:31;4.90;;;2.40;;
17424;SDS011;8830;50.978;5.058;2023-05-29T13:02:58;7.77;;;3.23;;
17424;SDS011;8830;50.978;5.058;2023-05-29T13:05:26;7.83;;;2.87;;
17424;SDS011;8830;50.978;5.058;2023-05-29T13:07:53;6.30;;;2.93;;
17424;SDS011;8830;50.978;5.058;2023-05-29T13:10:21;6.30;;;2.60;;
17424;SDS011;8830;50.978;5.058;2023-05-29T13:12:49;6.60;;;2.70;;
17424;SDS011;8830;50.978;5.058;2023-05-29T13:15:21;8.73;;;2.90;;
17424;SDS011;8830;50.978;5.058;2023-05-29T13:17:49;6.87;;;2.80;;
17424;SDS011;8830;50.978;5.058;2023-05-29T13:20:17;6.60;;;2.63;;
17424;SDS011;8830;50.978;5.058;2023-05-29T13:22:46;3.87;;;2.50;;
17424;SDS011;8830;50.978;5.058;2023-05-29T13:25:15;6.87;;;2.43;;
17424;SDS011;8830;50.978;5.058;2023-05-29T13:27:45;6.93;;;3.17;;
17424;SDS011;8830;50.978;5.058;2023-05-29T13:30:13;8.90;;;2.60;;
17424;SDS011;8830;50.978;5.058;2023-05-29T13:32:49;5.87;;;2.77;;
17424;SDS011;8830;50.978;5.058;2023-05-29T13:35:17;6.27;;;2.90;;
17424;SDS011;8830;50.978;5.058;2023-05-29T13:37:45;6.03;;;2.90;;
17424;SDS011;8830;50.978;5.058;2023-05-29T13:40:14;8.37;;;2.53;;
17424;SDS011;8830;50.978;5.058;2023-05-29T13:42:41;10.43;;;2.87;;
17424;SDS011;8830;50.978;5.058;2023-05-29T13:45:08;7.47;;;3.50;;
17424;SDS011;8830;50.978;5.058;2023-05-29T13:47:38;4.27;;;2.60;;
17424;SDS011;8830;50.978;5.058;2023-05-29T13:50:11;4.97;;;2.93;;
17424;SDS011;8830;50.978;5.058;2023-05-29T13:52:39;7.93;;;2.87;;
17424;SDS011;8830;50.978;5.058;2023-05-29T13:55:07;5.50;;;2.87;;
17424;SDS011;8830;50.978;5.058;2023-05-29T13:57:35;5.30;;;2.20;;
17424;SDS011;8830;50.978;5.058;2023-05-29T14:00:03;10.53;;;2.70;;
17424;SDS011;8830;50.978;5.058;2023-05-29T14:02:30;5.30;;;2.67;;
17424;SDS011;8830;50.978;5.058;2023-05-29T14:04:58;4.57;;;2.60;;
17424;SDS011;8830;50.978;5.058;2023-05-29T14:07:26;6.63;;;2.70;;
17424;SDS011;8830;50.978;5.058;2023-05-29T14:09:54;3.63;;;2.25;;
17424;SDS011;8830;50.978;5.058;2023-05-29T14:12:21;7.25;;;2.75;;
17424;SDS011;8830;50.978;5.058;2023-05-29T14:14:48;6.57;;;2.33;;
17424;SDS011;8830;50.978;5.058;2023-05-29T14:17:16;5.28;;;2.75;;
17424;SDS011;8830;50.978;5.058;2023-05-29T14:19:43;9.43;;;2.78;;
17424;SDS011;8830;50.978;5.058;2023-05-29T14:22:12;4.97;;;2.40;;
17424;SDS011;8830;50.978;5.058;2023-05-29T14:24:41;4.30;;;2.30;;
17424;SDS011;8830;50.978;5.058;2023-05-29T14:27:10;10.10;;;2.50;;
17424;SDS011;8830;50.978;5.058;2023-05-29T14:29:37;5.15;;;2.55;;
17424;SDS011;8830;50.978;5.058;2023-05-29T14:32:06;6.00;;;2.50;;
17424;SDS011;8830;50.978;5.058;2023-05-29T14:34:33;9.47;;;2.67;;
17424;SDS011;8830;50.978;5.058;2023-05-29T14:37:00;9.60;;;4.77;;
17424;SDS011;8830;50.978;5.058;2023-05-29T14:39:28;6.43;;;2.90;;
17424;SDS011;8830;50.978;5.058;2023-05-29T14:41:58;4.87;;;2.43;;
17424;SDS011;8830;50.978;5.058;2023-05-29T14:44:25;6.83;;;2.63;;
17424;SDS011;8830;50.978;5.058;2023-05-29T14:46:53;10.70;;;3.00;;
17424;SDS011;8830;50.978;5.058;2023-05-29T14:49:20;5.20;;;3.00;;
17424;SDS011;8830;50.978;5.058;2023-05-29T14:51:50;3.57;;;2.50;;
17424;SDS011;8830;50.978;5.058;2023-05-29T14:54:18;7.27;;;3.43;;
17424;SDS011;8830;50.978;5.058;2023-05-29T14:56:45;6.77;;;2.67;;
17424;SDS011;8830;50.978;5.058;2023-05-29T14:59:14;8.47;;;2.93;;
17424;SDS011;8830;50.978;5.058;2023-05-29T15:01:42;7.07;;;2.90;;
17424;SDS011;8830;50.978;5.058;2023-05-29T15:04:09;7.47;;;3.28;;
17424;SDS011;8830;50.978;5.058;2023-05-29T15:06:38;5.33;;;2.60;;
17424;SDS011;8830;50.978;5.058;2023-05-29T15:09:05;7.87;;;2.27;;
17424;SDS011;8830;50.978;5.058;2023-05-29T15:11:32;4.47;;;2.47;;
17424;SDS011;8830;50.978;5.058;2023-05-29T15:14:00;7.90;;;2.90;;
17424;SDS011;8830;50.978;5.058;2023-05-29T15:16:31;4.90;;;2.80;;
17424;SDS011;8830;50.978;5.058;2023-05-29T15:18:58;6.40;;;2.10;;
17424;SDS011;8830;50.978;5.058;2023-05-29T15:21:26;7.57;;;2.80;;
17424;SDS011;8830;50.978;5.058;2023-05-29T15:23:54;8.38;;;2.65;;
17424;SDS011;8830;50.978;5.058;2023-05-29T15:26:22;4.53;;;2.40;;
17424;SDS011;8830;50.978;5.058;2023-05-29T15:28:50;6.27;;;2.73;;
17424;SDS011;8830;50.978;5.058;2023-05-29T15:31:17;5.03;;;2.30;;
17424;SDS011;8830;50.978;5.058;2023-05-29T15:33:46;6.20;;;2.27;;
17424;SDS011;8830;50.978;5.058;2023-05-29T15:36:15;7.73;;;2.30;;
17424;SDS011;8830;50.978;5.058;2023-05-29T15:38:50;6.13;;;2.53;;
17424;SDS011;8830;50.978;5.058;2023-05-29T15:41:18;7.27;;;3.27;;
17424;SDS011;8830;50.978;5.058;2023-05-29T15:43:46;5.70;;;2.63;;
17424;SDS011;8830;50.978;5.058;2023-05-29T15:46:15;6.90;;;2.63;;
17424;SDS011;8830;50.978;5.058;2023-05-29T15:48:42;5.33;;;1.80;;
17424;SDS011;8830;50.978;5.058;2023-05-29T15:51:11;3.67;;;2.30;;
17424;SDS011;8830;50.978;5.058;2023-05-29T15:53:44;5.63;;;2.37;;
17424;SDS011;8830;50.978;5.058;2023-05-29T15:56:12;5.97;;;2.20;;
17424;SDS011;8830;50.978;5.058;2023-05-29T15:58:39;6.67;;;2.57;;
17424;SDS011;8830;50.978;5.058;2023-05-29T16:01:06;13.10;;;7.13;;
17424;SDS011;8830;50.978;5.058;2023-05-29T16:03:34;5.73;;;2.33;;
17424;SDS011;8830;50.978;5.058;2023-05-29T16:06:02;9.97;;;2.83;;
17424;SDS011;8830;50.978;5.058;2023-05-29T16:08:31;6.70;;;2.27;;
17424;SDS011;8830;50.978;5.058;2023-05-29T16:10:58;8.30;;;2.27;;
17424;SDS011;8830;50.978;5.058;2023-05-29T16:13:26;6.30;;;2.50;;
17424;SDS011;8830;50.978;5.058;2023-05-29T16:15:55;6.60;;;3.30;;
17424;SDS011;8830;50.978;5.058;2023-05-29T16:18:22;7.87;;;3.60;;
17424;SDS011;8830;50.978;5.058;2023-05-29T16:20:50;7.47;;;3.53;;
17424;SDS011;8830;50.978;5.058;2023-05-29T16:23:17;6.97;;;2.27;;
17424;SDS011;8830;50.978;5.058;2023-05-29T16:25:46;4.93;;;2.33;;
17424;SDS011;8830;50.978;5.058;2023-05-29T16:28:13;6.03;;;3.03;;
17424;SDS011;8830;50.978;5.058;2023-05-29T16:30:42;7.50;;;2.97;;
17424;SDS011;8830;50.978;5.058;2023-05-29T16:33:09;6.13;;;2.57;;
17424;SDS011;8830;50.978;5.058;2023-05-29T16:35:37;5.50;;;2.30;;
17424;SDS011;8830;50.978;5.058;2023-05-29T16:38:04;4.70;;;2.57;;
17424;SDS011;8830;50.978;5.058;2023-05-29T16:40:32;5.47;;;2.67;;
17424;SDS011;8830;50.978;5.058;2023-05-29T16:43:01;8.77;;;3.17;;
17424;SDS011;8830;50.978;5.058;2023-05-29T16:45:29;6.63;;;2.57;;
17424;SDS011;8830;50.978;5.058;2023-05-29T16:47:56;8.63;;;2.90;;
17424;SDS011;8830;50.978;5.058;2023-05-29T16:50:24;6.90;;;2.30;;
17424;SDS011;8830;50.978;5.058;2023-05-29T16:52:57;5.67;;;3.13;;
17424;SDS011;8830;50.978;5.058;2023-05-29T16:55:27;6.97;;;2.70;;
17424;SDS011;8830;50.978;5.058;2023-05-29T16:57:54;8.57;;;2.77;;
17424;SDS011;8830;50.978;5.058;2023-05-29T17:00:23;8.50;;;3.10;;
17424;SDS011;8830;50.978;5.058;2023-05-29T17:02:52;5.77;;;2.77;;
17424;SDS011;8830;50.978;5.058;2023-05-29T17:05:19;9.13;;;3.47;;
17424;SDS011;8830;50.978;5.058;2023-05-29T17:07:47;9.43;;;3.00;;
17424;SDS011;8830;50.978;5.058;2023-05-29T17:10:15;7.13;;;2.80;;
17424;SDS011;8830;50.978;5.058;2023-05-29T17:12:44;8.97;;;2.87;;
17424;SDS011;8830;50.978;5.058;2023-05-29T17:15:12;7.07;;;2.83;;
17424;SDS011;8830;50.978;5.058;2023-05-29T17:17:41;8.17;;;3.07;;
17424;SDS011;8830;50.978;5.058;2023-05-29T17:20:09;12.20;;;3.53;;
17424;SDS011;8830;50.978;5.058;2023-05-29T17:22:40;9.40;;;2.80;;
17424;SDS011;8830;50.978;5.058;2023-05-29T17:25:08;8.23;;;3.13;;
17424;SDS011;8830;50.978;5.058;2023-05-29T17:27:36;8.47;;;2.93;;
17424;SDS011;8830;50.978;5.058;2023-05-29T17:30:04;6.23;;;2.57;;
17424;SDS011;8830;50.978;5.058;2023-05-29T17:32:33;5.90;;;2.30;;
17424;SDS011;8830;50.978;5.058;2023-05-29T17:35:02;5.50;;;2.57;;
17424;SDS011;8830;50.978;5.058;2023-05-29T17:37:30;9.07;;;2.70;;
17424;SDS011;8830;50.978;5.058;2023-05-29T17:39:59;6.13;;;2.33;;
17424;SDS011;8830;50.978;5.058;2023-05-29T17:42:26;8.17;;;3.30;;
17424;SDS011;8830;50.978;5.058;2023-05-29T17:44:54;5.73;;;2.83;;
17424;SDS011;8830;50.978;5.058;2023-05-29T17:47:22;7.93;;;2.90;;
17424;SDS011;8830;50.978;5.058;2023-05-29T17:49:49;10.20;;;2.53;;
17424;SDS011;8830;50.978;5.058;2023-05-29T17:52:18;5.97;;;2.20;;
17424;SDS011;8830;50.978;5.058;2023-05-29T17:54:47;4.13;;;2.20;;
17424;SDS011;8830;50.978;5.058;2023-05-29T17:57:14;7.17;;;2.53;;
17424;SDS011;8830;50.978;5.058;2023-05-29T17:59:42;6.03;;;2.40;;
17424;SDS011;8830;50.978;5.058;2023-05-29T18:02:11;8.27;;;2.43;;
17424;SDS011;8830;50.978;5.058;2023-05-29T18:04:43;5.30;;;2.53;;
17424;SDS011;8830;50.978;5.058;2023-05-29T18:07:14;6.53;;;3.00;;
17424;SDS011;8830;50.978;5.058;2023-05-29T18:09:44;5.90;;;2.53;;
17424;SDS011;8830;50.978;5.058;2023-05-29T18:12:12;7.20;;;2.90;;
17424;SDS011;8830;50.978;5.058;2023-05-29T18:14:39;7.67;;;2.80;;
17424;SDS011;8830;50.978;5.058;2023-05-29T18:17:07;5.00;;;2.70;;
17424;SDS011;8830;50.978;5.058;2023-05-29T18:19:36;8.00;;;3.03;;
17424;SDS011;8830;50.978;5.058;2023-05-29T18:22:04;7.50;;;2.93;;